createdAt,value
2022-09-21T00:01:46.043Z,8.97
2022-09-21T00:04:16.167Z,8.95
2022-09-21T00:06:46.336Z,8.91
2022-09-21T00:09:15.563Z,8.86
2022-09-21T00:11:44.173Z,8.81
2022-09-21T00:14:14.427Z,8.79
2022-09-21T00:16:43.677Z,8.77
2022-09-21T00:19:12.855Z,8.75
2022-09-21T00:21:41.983Z,8.75
2022-09-21T00:24:11.903Z,8.76
2022-09-21T00:26:40.676Z,8.75
2022-09-21T00:29:11.481Z,8.73
2022-09-21T00:31:40.286Z,8.70
2022-09-21T00:34:09.455Z,8.70
2022-09-21T00:36:38.619Z,8.72
2022-09-21T00:39:07.276Z,8.72
2022-09-21T00:41:36.042Z,8.72
2022-09-21T00:44:31.043Z,8.72
2022-09-21T00:47:04.590Z,8.71
2022-09-21T00:49:34.808Z,8.71
2022-09-21T00:52:07.504Z,8.71
2022-09-21T00:54:41.539Z,8.72
2022-09-21T00:57:10.765Z,8.72
2022-09-21T00:59:42.103Z,8.73
2022-09-21T01:02:11.700Z,8.74
2022-09-21T01:04:41.130Z,8.74
2022-09-21T01:07:16.681Z,8.73
2022-09-21T01:09:50.124Z,8.69
2022-09-21T01:12:34.496Z,8.67
2022-09-21T01:15:19.626Z,8.63
2022-09-21T01:17:57.241Z,8.61
2022-09-21T01:20:59.156Z,8.58
2022-09-21T01:23:42.648Z,8.54
2022-09-21T01:26:22.566Z,8.54
2022-09-21T01:29:12.526Z,8.52
2022-09-21T01:31:46.863Z,8.53
2022-09-21T01:34:24.562Z,8.52
2022-09-21T01:36:57.432Z,8.51
2022-09-21T01:39:28.232Z,8.50
2022-09-21T01:41:57.653Z,8.48
2022-09-21T01:44:32.955Z,8.45
2022-09-21T01:47:03.702Z,8.41
2022-09-21T01:49:34.847Z,8.39
2022-09-21T01:52:13.849Z,8.35
2022-09-21T01:54:46.512Z,8.33
2022-09-21T01:57:23.434Z,8.31
2022-09-21T01:59:58.411Z,8.29
2022-09-21T02:02:38.982Z,8.26
2022-09-21T02:05:08.925Z,8.26
2022-09-21T02:07:39.562Z,8.26
2022-09-21T02:10:13.356Z,8.25
2022-09-21T02:12:42.273Z,8.25
2022-09-21T02:15:12.029Z,8.26
2022-09-21T02:17:51.483Z,8.24
2022-09-21T02:20:24.967Z,8.17
2022-09-21T02:23:06.032Z,8.14
2022-09-21T02:25:46.780Z,8.13
2022-09-21T02:28:26.987Z,8.09
2022-09-21T02:31:01.762Z,8.04
2022-09-21T02:33:38.855Z,8.04
2022-09-21T02:36:15.618Z,8.05
2022-09-21T02:38:51.578Z,8.06
2022-09-21T02:41:26.739Z,8.06
2022-09-21T02:44:02.960Z,8.07
2022-09-21T02:46:37.070Z,8.09
2022-09-21T02:49:10.359Z,8.07
2022-09-21T02:51:44.111Z,8.07
2022-09-21T02:54:17.556Z,8.06
2022-09-21T02:56:50.937Z,8.01
2022-09-21T02:59:23.467Z,8.00
2022-09-21T03:01:53.099Z,7.94
2022-09-21T03:04:22.524Z,7.96
2022-09-21T03:06:52.047Z,8.02
2022-09-21T03:09:23.773Z,8.06
2022-09-21T03:11:52.752Z,8.05
2022-09-21T03:14:22.443Z,8.05
2022-09-21T03:16:51.202Z,8.08
2022-09-21T03:19:19.892Z,8.15
2022-09-21T03:21:48.616Z,8.22
2022-09-21T03:24:37.455Z,8.25
2022-09-21T03:27:08.058Z,8.27
2022-09-21T03:29:35.818Z,8.25
2022-09-21T03:32:06.981Z,8.20
2022-09-21T03:34:35.700Z,8.14
2022-09-21T03:37:06.358Z,8.15
2022-09-21T03:39:36.164Z,8.16
2022-09-21T03:42:05.118Z,8.15
2022-09-21T03:44:33.912Z,8.15
2022-09-21T03:47:02.635Z,8.17
2022-09-21T03:49:31.885Z,8.19
2022-09-21T03:52:00.623Z,8.16
2022-09-21T03:54:29.661Z,8.15
2022-09-21T03:56:58.313Z,8.14
2022-09-21T03:59:27.173Z,8.14
2022-09-21T04:01:55.845Z,8.16
2022-09-21T04:04:26.205Z,8.18
2022-09-21T04:06:54.826Z,8.19
2022-09-21T04:09:23.493Z,8.20
2022-09-21T04:11:53.572Z,8.20
2022-09-21T04:14:22.732Z,8.24
2022-09-21T04:16:51.678Z,8.24
2022-09-21T04:19:21.759Z,8.26
2022-09-21T04:21:51.089Z,8.30
2022-09-21T04:24:19.951Z,8.33
2022-09-21T04:26:48.964Z,8.30
2022-09-21T04:29:17.774Z,8.32
2022-09-21T04:31:46.371Z,8.34
2022-09-21T04:34:15.038Z,8.34
2022-09-21T04:36:47.091Z,8.37
2022-09-21T04:39:15.857Z,8.42
2022-09-21T04:41:44.924Z,8.45
2022-09-21T04:44:13.672Z,8.49
2022-09-21T04:46:42.377Z,8.51
2022-09-21T04:49:12.560Z,8.52
2022-09-21T04:51:41.246Z,8.55
2022-09-21T04:54:10.186Z,8.57
2022-09-21T04:56:40.389Z,8.56
2022-09-21T04:59:09.266Z,8.56
2022-09-21T05:01:38.049Z,8.55
2022-09-21T05:04:06.947Z,8.59
2022-09-21T05:06:35.694Z,8.58
2022-09-21T05:09:25.194Z,8.59
2022-09-21T05:11:54.555Z,8.59
2022-09-21T05:14:23.730Z,8.62
2022-09-21T05:16:52.388Z,8.65
2022-09-21T05:19:22.345Z,8.68
2022-09-21T05:21:51.129Z,8.70
2022-09-21T05:24:20.041Z,8.69
2022-09-21T05:26:48.733Z,8.69
2022-09-21T05:29:18.612Z,8.72
2022-09-21T05:31:53.968Z,8.74
2022-09-21T05:34:36.660Z,8.78
2022-09-21T05:37:12.794Z,8.75
2022-09-21T05:39:42.845Z,8.77
2022-09-21T05:42:13.242Z,8.79
2022-09-21T05:44:42.862Z,8.82
2022-09-21T05:47:24.655Z,8.84
2022-09-21T05:50:05.335Z,8.85
2022-09-21T05:52:47.215Z,8.84
2022-09-21T05:55:31.717Z,8.88
2022-09-21T05:58:10.141Z,8.90
2022-09-21T06:00:45.381Z,8.87
2022-09-21T06:03:31.911Z,8.85
2022-09-21T06:06:00.665Z,8.88
2022-09-21T06:08:29.652Z,8.89
2022-09-21T06:10:58.549Z,8.90
2022-09-21T06:13:27.764Z,8.95
2022-09-21T06:15:57.963Z,8.94
2022-09-21T06:18:26.044Z,8.89
2022-09-21T06:20:54.638Z,8.87
2022-09-21T06:23:23.549Z,8.87
2022-09-21T06:25:57.539Z,8.94
2022-09-21T06:28:27.850Z,9.01
2022-09-21T06:30:57.909Z,9.06
2022-09-21T06:33:26.665Z,9.10
2022-09-21T06:35:56.873Z,9.14
2022-09-21T06:38:27.757Z,9.17
2022-09-21T06:41:00.864Z,9.21
2022-09-21T06:43:29.940Z,9.23
2022-09-21T06:46:00.401Z,9.22
2022-09-21T06:48:30.873Z,9.18
2022-09-21T06:50:59.280Z,9.14
2022-09-21T06:53:29.084Z,9.12
2022-09-21T06:56:03.888Z,9.11
2022-09-21T06:58:35.417Z,9.10
2022-09-21T07:01:10.260Z,9.10
2022-09-21T07:03:40.829Z,9.11
2022-09-21T07:06:11.178Z,9.14
2022-09-21T07:11:30.974Z,9.12
2022-09-21T07:14:00.066Z,9.13
2022-09-21T07:16:32.879Z,9.20
2022-09-21T07:19:10.299Z,9.28
2022-09-21T07:21:40.146Z,9.35
2022-09-21T07:24:12.204Z,9.34
2022-09-21T07:26:41.428Z,9.35
2022-09-21T07:29:10.499Z,9.36
2022-09-21T07:31:39.187Z,9.35
2022-09-21T07:34:08.025Z,9.36
2022-09-21T07:36:39.795Z,9.37
2022-09-21T07:39:10.501Z,9.37
2022-09-21T07:41:39.224Z,9.35
2022-09-21T07:44:08.286Z,9.35
2022-09-21T07:46:36.968Z,9.31
2022-09-21T07:49:05.874Z,9.30
2022-09-21T07:51:36.021Z,9.28
2022-09-21T07:54:05.071Z,9.27
2022-09-21T07:56:33.717Z,9.31
2022-09-21T07:59:08.549Z,9.36
2022-09-21T08:01:39.102Z,9.42
2022-09-21T08:04:10.415Z,9.47
2022-09-21T08:06:40.290Z,9.43
2022-09-21T08:09:09.183Z,9.45
2022-09-21T08:11:37.752Z,9.49
2022-09-21T08:14:07.719Z,9.52
2022-09-21T08:16:38.804Z,9.52
2022-09-21T08:19:08.187Z,9.53
2022-09-21T08:21:36.975Z,9.58
2022-09-21T08:24:06.860Z,9.65
2022-09-21T08:26:35.920Z,9.73
2022-09-21T08:29:06.046Z,9.81
2022-09-21T08:31:35.237Z,9.90
2022-09-21T08:34:03.879Z,9.96
2022-09-21T08:36:33.855Z,9.98
2022-09-21T08:39:02.799Z,9.93
2022-09-21T08:41:57.530Z,9.92
2022-09-21T08:44:33.032Z,9.93
2022-09-21T08:47:09.978Z,9.93
2022-09-21T08:49:41.872Z,9.95
2022-09-21T08:52:16.503Z,10.00
2022-09-21T08:54:52.228Z,10.01
2022-09-21T08:57:22.993Z,10.03
2022-09-21T08:59:52.803Z,10.02
2022-09-21T09:02:44.507Z,10.02
2022-09-21T09:05:32.272Z,10.05
2022-09-21T09:08:18.925Z,10.09
2022-09-21T09:11:01.463Z,10.05
2022-09-21T09:13:46.633Z,10.06
2022-09-21T09:16:23.158Z,10.08
2022-09-21T09:18:55.450Z,10.06
2022-09-21T09:21:32.068Z,10.08
2022-09-21T09:24:08.757Z,10.15
2022-09-21T09:26:42.507Z,10.26
2022-09-21T09:29:22.763Z,10.31
2022-09-21T09:31:55.442Z,10.36
2022-09-21T09:34:29.286Z,10.45
2022-09-21T09:37:00.210Z,10.63
2022-09-21T09:39:30.630Z,11.11
2022-09-21T09:42:14.030Z,11.72
2022-09-21T09:45:17.653Z,12.64
2022-09-21T09:47:58.995Z,12.67
2022-09-21T09:50:29.794Z,12.60
2022-09-21T09:53:04.769Z,12.41
2022-09-21T09:55:39.317Z,12.49
2022-09-21T09:58:17.724Z,12.76
2022-09-21T10:00:53.208Z,12.82
2022-09-21T10:03:23.782Z,12.65
2022-09-21T10:05:51.594Z,12.52
2022-09-21T10:08:31.165Z,12.58
2022-09-21T10:11:00.066Z,12.79
2022-09-21T10:13:31.295Z,12.91
2022-09-21T10:16:02.678Z,13.06
2022-09-21T10:18:37.964Z,13.16
2022-09-21T10:21:09.002Z,13.16
2022-09-21T10:23:38.762Z,13.08
2022-09-21T10:26:10.287Z,12.89
2022-09-21T10:28:56.471Z,12.73
2022-09-21T10:31:26.409Z,12.68
2022-09-21T10:34:06.411Z,12.63
2022-09-21T10:36:38.181Z,12.58
2022-09-21T10:39:28.207Z,12.53
2022-09-21T10:42:02.518Z,12.53
2022-09-21T10:44:38.821Z,12.54
2022-09-21T10:47:19.004Z,12.53
2022-09-21T10:49:49.785Z,12.58
2022-09-21T10:52:20.344Z,12.70
2022-09-21T10:54:51.460Z,12.84
2022-09-21T10:57:22.966Z,12.90
2022-09-21T10:59:51.983Z,12.93
2022-09-21T11:02:38.507Z,13.07
2022-09-21T11:05:19.978Z,13.28
2022-09-21T11:07:57.048Z,13.57
2022-09-21T11:10:34.669Z,13.89
2022-09-21T11:13:23.562Z,13.81
2022-09-21T11:15:59.360Z,13.66
2022-09-21T11:18:40.234Z,13.69
2022-09-21T11:21:19.845Z,13.78
2022-09-21T11:23:57.432Z,13.91
2022-09-21T11:26:30.453Z,13.99
2022-09-21T11:29:08.089Z,13.93
2022-09-21T11:31:50.113Z,13.82
2022-09-21T11:34:37.272Z,13.74
2022-09-21T11:37:18.495Z,13.74
2022-09-21T11:40:02.525Z,13.85
2022-09-21T11:42:45.136Z,13.89
2022-09-21T11:45:28.894Z,13.95
2022-09-21T11:48:12.632Z,13.98
2022-09-21T11:50:52.476Z,13.94
2022-09-21T11:53:36.659Z,13.98
2022-09-21T11:56:21.317Z,13.98
2022-09-21T11:59:00.096Z,14.03
2022-09-21T12:01:44.774Z,14.11
2022-09-21T12:04:30.011Z,14.15
2022-09-21T12:07:16.441Z,14.17
2022-09-21T12:10:18.963Z,14.12
2022-09-21T12:12:54.204Z,14.00
2022-09-21T12:15:29.730Z,13.90
2022-09-21T12:18:08.781Z,13.88
2022-09-21T12:20:48.475Z,13.86
2022-09-21T12:23:22.423Z,13.80
2022-09-21T12:25:56.725Z,13.66
2022-09-21T12:28:31.825Z,13.55
2022-09-21T12:31:05.457Z,13.41
2022-09-21T12:33:39.735Z,13.44
2022-09-21T12:36:16.322Z,13.86
2022-09-21T12:38:52.875Z,13.92
2022-09-21T12:41:33.705Z,14.80
2022-09-21T12:44:12.111Z,15.98
2022-09-21T12:46:47.099Z,16.51
2022-09-21T12:49:20.797Z,16.13
2022-09-21T12:51:54.887Z,15.71
2022-09-21T12:54:37.456Z,15.34
2022-09-21T12:57:42.697Z,14.95
2022-09-21T13:00:13.711Z,14.68
2022-09-21T13:02:50.612Z,14.55
2022-09-21T13:05:33.489Z,14.40
2022-09-21T13:08:11.671Z,14.22
2022-09-21T13:10:49.159Z,13.98
2022-09-21T13:13:33.512Z,13.82
2022-09-21T13:16:03.991Z,13.75
2022-09-21T13:18:36.751Z,13.83
2022-09-21T13:21:21.381Z,14.00
2022-09-21T13:23:56.392Z,14.16
2022-09-21T13:26:35.554Z,14.11
2022-09-21T13:29:29.576Z,14.40
2022-09-21T13:32:01.371Z,14.63
2022-09-21T13:34:35.888Z,14.74
2022-09-21T13:37:30.989Z,14.78
2022-09-21T13:40:37.577Z,14.70
2022-09-21T13:43:46.650Z,14.54
2022-09-21T13:46:48.240Z,14.37
2022-09-21T13:49:26.400Z,14.28
2022-09-21T13:52:00.101Z,14.22
2022-09-21T13:54:32.985Z,14.25
2022-09-21T13:57:09.144Z,14.38
2022-09-21T13:59:40.093Z,14.51
2022-09-21T14:02:31.948Z,14.59
2022-09-21T14:05:09.510Z,14.51
2022-09-21T14:10:20.620Z,14.09
2022-09-21T14:12:50.856Z,13.93
2022-09-21T14:15:39.902Z,13.82
2022-09-21T14:18:46.400Z,13.76
2022-09-21T14:21:17.930Z,13.74
2022-09-21T14:24:18.987Z,13.87
2022-09-21T14:26:52.708Z,14.08
2022-09-21T14:29:27.236Z,14.26
2022-09-21T14:31:59.770Z,14.40
2022-09-21T14:34:36.389Z,14.47
2022-09-21T14:37:12.675Z,14.47
2022-09-21T14:39:44.887Z,14.51
2022-09-21T14:42:18.641Z,14.53
2022-09-21T14:44:51.253Z,14.51
2022-09-21T14:47:34.498Z,14.44
2022-09-21T14:50:20.159Z,14.26
2022-09-21T14:53:13.942Z,14.15
2022-09-21T14:55:56.097Z,14.03
2022-09-21T14:58:34.811Z,13.93
2022-09-21T15:01:35.353Z,13.88
2022-09-21T15:04:16.041Z,13.79
2022-09-21T15:07:13.978Z,13.75
2022-09-21T15:10:31.647Z,13.74
2022-09-21T15:13:11.621Z,13.71
2022-09-21T15:15:51.268Z,13.60
2022-09-21T15:18:22.350Z,13.48
2022-09-21T15:21:02.926Z,13.41
2022-09-21T15:23:38.625Z,13.33
2022-09-21T15:26:18.539Z,13.24
2022-09-21T15:29:09.827Z,13.15
2022-09-21T15:31:41.251Z,13.10
2022-09-21T15:34:13.487Z,13.03
2022-09-21T15:36:43.907Z,13.01
2022-09-21T15:39:24.368Z,12.95
2022-09-21T15:42:02.560Z,12.90
2022-09-21T15:44:36.220Z,12.83
2022-09-21T15:47:08.693Z,12.73
2022-09-21T15:49:41.345Z,12.65
2022-09-21T15:52:15.927Z,12.61
2022-09-21T15:54:50.251Z,12.57
2022-09-21T15:57:34.636Z,12.57
2022-09-21T16:00:17.975Z,12.54
2022-09-21T16:03:03.696Z,12.52
2022-09-21T16:05:41.129Z,12.56
2022-09-21T16:08:29.390Z,12.62
2022-09-21T16:11:19.281Z,12.61
2022-09-21T16:14:15.110Z,12.55
2022-09-21T16:17:06.189Z,12.49
2022-09-21T16:19:42.674Z,12.51
2022-09-21T16:22:14.395Z,12.53
2022-09-21T16:24:49.744Z,12.47
2022-09-21T16:27:20.642Z,12.43
2022-09-21T16:29:51.050Z,12.42
2022-09-21T16:32:23.447Z,12.42
2022-09-21T16:34:53.618Z,12.37
2022-09-21T16:37:28.156Z,12.33
2022-09-21T16:39:58.471Z,12.28
2022-09-21T16:42:30.670Z,12.23
2022-09-21T16:45:00.257Z,12.10
2022-09-21T16:47:29.507Z,12.02
2022-09-21T16:50:00.902Z,11.98
2022-09-21T16:52:30.632Z,11.98
2022-09-21T16:54:59.585Z,11.97
2022-09-21T16:57:28.412Z,11.94
2022-09-21T16:59:57.452Z,11.94
2022-09-21T17:02:26.145Z,11.92
2022-09-21T17:04:54.901Z,11.89
2022-09-21T17:07:23.976Z,11.87
2022-09-21T17:09:52.867Z,11.83
2022-09-21T17:12:23.326Z,11.79
2022-09-21T17:14:51.761Z,11.75
2022-09-21T17:17:22.973Z,11.71
2022-09-21T17:19:53.771Z,11.66
2022-09-21T17:22:24.834Z,11.58
2022-09-21T17:24:54.292Z,11.57
2022-09-21T17:27:26.025Z,11.58
2022-09-21T17:29:55.848Z,11.61
2022-09-21T17:32:24.958Z,11.63
2022-09-21T17:34:58.441Z,11.67
2022-09-21T17:37:27.488Z,11.71
2022-09-21T17:39:56.489Z,11.72
2022-09-21T17:42:25.551Z,11.72
2022-09-21T17:45:12.214Z,11.74
2022-09-21T17:47:42.390Z,11.76
2022-09-21T17:50:25.564Z,11.78
2022-09-21T17:53:14.333Z,11.78
2022-09-21T17:55:47.952Z,11.76
2022-09-21T17:58:41.616Z,11.73
2022-09-21T18:01:27.460Z,11.70
2022-09-21T18:03:58.870Z,11.61
2022-09-21T18:06:28.673Z,11.53
2022-09-21T18:08:59.037Z,11.48
2022-09-21T18:11:50.741Z,11.41
2022-09-21T18:14:31.811Z,11.32
2022-09-21T18:17:12.493Z,11.27
2022-09-21T18:19:46.663Z,11.23
2022-09-21T18:22:23.547Z,11.19
2022-09-21T18:24:55.208Z,11.12
2022-09-21T18:27:29.639Z,11.06
2022-09-21T18:29:59.729Z,11.10
2022-09-21T18:32:49.194Z,11.10
2022-09-21T18:35:48.290Z,11.12
2022-09-21T18:38:25.715Z,11.11
2022-09-21T18:41:19.747Z,11.07
2022-09-21T18:44:11.532Z,11.02
2022-09-21T18:46:50.422Z,11.05
2022-09-21T18:49:38.273Z,11.10
2022-09-21T18:52:24.664Z,11.14
2022-09-21T18:54:53.855Z,11.12
2022-09-21T18:57:25.977Z,11.10
2022-09-21T18:59:58.444Z,11.11
2022-09-21T19:02:28.667Z,11.13
2022-09-21T19:04:58.544Z,11.10
2022-09-21T19:07:30.869Z,11.07
2022-09-21T19:10:12.252Z,11.06
2022-09-21T19:12:54.256Z,11.05
2022-09-21T19:15:48.642Z,11.04
2022-09-21T19:18:24.462Z,11.04
2022-09-21T19:21:14.900Z,11.05
2022-09-21T19:23:59.741Z,11.04
2022-09-21T19:26:33.176Z,11.06
2022-09-21T19:29:18.297Z,11.09
2022-09-21T19:31:52.224Z,11.10
2022-09-21T19:34:23.196Z,11.11
2022-09-21T19:36:56.562Z,11.12
2022-09-21T19:39:27.001Z,11.13
2022-09-21T19:42:07.317Z,11.14
2022-09-21T19:44:51.092Z,11.15
2022-09-21T19:47:29.622Z,11.14
2022-09-21T19:50:12.403Z,11.13
2022-09-21T19:52:42.303Z,11.13
2022-09-21T19:55:35.141Z,11.12
2022-09-21T19:58:24.154Z,11.10
2022-09-21T20:00:55.297Z,11.06
2022-09-21T20:03:31.529Z,11.02
2022-09-21T20:06:06.045Z,11.00
2022-09-21T20:08:41.887Z,10.99
2022-09-21T20:11:14.238Z,10.97
2022-09-21T20:13:57.165Z,10.94
2022-09-21T20:16:43.062Z,10.92
2022-09-21T20:19:28.406Z,10.87
2022-09-21T20:22:04.267Z,10.85
2022-09-21T20:24:44.329Z,10.82
2022-09-21T20:27:22.588Z,10.84
2022-09-21T20:29:51.350Z,10.84
2022-09-21T20:32:21.270Z,10.85
2022-09-21T20:34:50.032Z,10.85
2022-09-21T20:37:18.733Z,10.87
2022-09-21T20:39:47.641Z,10.88
2022-09-21T20:42:20.435Z,10.89
2022-09-21T20:44:49.288Z,10.93
2022-09-21T20:47:18.668Z,10.94
2022-09-21T20:49:47.677Z,10.91
2022-09-21T20:52:17.022Z,10.89
2022-09-21T20:54:49.260Z,10.88
2022-09-21T20:57:19.505Z,10.85
2022-09-21T20:59:48.490Z,10.82
2022-09-21T21:02:17.190Z,10.79
2022-09-21T21:04:45.848Z,10.75
2022-09-21T21:07:14.420Z,10.71
2022-09-21T21:09:43.377Z,10.68
2022-09-21T21:12:12.579Z,10.64
2022-09-21T21:14:47.087Z,10.64
2022-09-21T21:17:16.128Z,10.63
2022-09-21T21:19:45.222Z,10.60
2022-09-21T21:22:14.167Z,10.57
2022-09-21T21:24:43.620Z,10.54
2022-09-21T21:27:15.983Z,10.45
2022-09-21T21:29:46.369Z,10.38
2022-09-21T21:32:16.182Z,10.33
2022-09-21T21:34:45.419Z,10.29
2022-09-21T21:37:15.872Z,10.29
2022-09-21T21:39:45.044Z,10.29
2022-09-21T21:42:13.776Z,10.25
2022-09-21T21:44:42.780Z,10.20
2022-09-21T21:47:37.707Z,10.17
2022-09-21T21:50:00.914Z,10.13
2022-09-21T21:52:29.852Z,10.10
2022-09-21T21:54:58.461Z,10.05
2022-09-21T21:57:27.160Z,9.99
2022-09-21T21:59:55.869Z,9.94
2022-09-21T22:02:25.439Z,9.93
2022-09-21T22:04:54.251Z,9.90
2022-09-21T22:07:23.056Z,9.83
2022-09-21T22:09:51.808Z,9.81
2022-09-21T22:12:21.467Z,9.80
2022-09-21T22:14:50.209Z,9.80
2022-09-21T22:17:18.842Z,9.79
2022-09-21T22:19:47.637Z,9.77
2022-09-21T22:22:16.487Z,9.70
2022-09-21T22:24:48.426Z,9.67
2022-09-21T22:27:17.309Z,9.67
2022-09-21T22:29:46.272Z,9.66
2022-09-21T22:32:15.141Z,9.62
2022-09-21T22:34:44.325Z,9.58
2022-09-21T22:37:13.038Z,9.53
2022-09-21T22:39:42.720Z,9.50
2022-09-21T22:42:12.096Z,9.46
2022-09-21T22:44:40.871Z,9.43
2022-09-21T22:47:09.588Z,9.40
2022-09-21T22:49:38.396Z,9.36
2022-09-21T22:52:07.329Z,9.33
2022-09-21T22:54:36.117Z,9.30
2022-09-21T22:57:05.856Z,9.27
2022-09-21T22:59:34.522Z,9.23
2022-09-21T23:02:03.321Z,9.20
2022-09-21T23:04:32.114Z,9.17
2022-09-21T23:07:00.808Z,9.14
2022-09-21T23:09:29.676Z,9.09
2022-09-21T23:11:59.037Z,9.03
2022-09-21T23:14:27.704Z,9.00
2022-09-21T23:16:56.568Z,9.00
2022-09-21T23:19:25.573Z,8.98
2022-09-21T23:21:54.433Z,8.94
2022-09-21T23:24:23.570Z,8.91
2022-09-21T23:26:52.338Z,8.89
2022-09-21T23:29:21.192Z,8.86
2022-09-21T23:31:49.896Z,8.83
2022-09-21T23:34:18.629Z,8.81
2022-09-21T23:36:47.404Z,8.79
2022-09-21T23:39:16.305Z,8.77
2022-09-21T23:41:45.306Z,8.73
2022-09-21T23:44:14.345Z,8.73
2022-09-21T23:46:43.615Z,8.70
2022-09-21T23:49:13.811Z,8.67
2022-09-21T23:51:45.031Z,8.65
2022-09-21T23:54:14.601Z,8.62
2022-09-21T23:56:43.777Z,8.60
2022-09-21T23:59:12.515Z,8.58
